createdAt,value
2018-02-06T00:01:29.740Z,-0.37
2018-02-06T00:03:55.704Z,-0.44
2018-02-06T00:06:21.638Z,-0.27
2018-02-06T00:08:47.674Z,-0.43
2018-02-06T00:11:13.634Z,-0.47
2018-02-06T00:13:39.566Z,-0.74
2018-02-06T00:16:05.498Z,-0.55
2018-02-06T00:18:31.462Z,-0.50
2018-02-06T00:20:57.444Z,-0.63
2018-02-06T00:23:23.376Z,-0.47
2018-02-06T00:25:49.315Z,-0.80
2018-02-06T00:28:15.299Z,-0.72
2018-02-06T00:30:41.278Z,-1.01
2018-02-06T00:33:07.234Z,-0.89
2018-02-06T00:35:33.176Z,-0.64
2018-02-06T00:37:59.156Z,-0.27
2018-02-06T00:40:25.101Z,-0.37
2018-02-06T00:42:51.063Z,-0.46
2018-02-06T00:45:17.021Z,-0.91
2018-02-06T00:47:43.009Z,-0.67
2018-02-06T00:50:08.989Z,-0.47
2018-02-06T00:52:34.974Z,-0.44
2018-02-06T00:55:00.934Z,-0.42
2018-02-06T00:57:26.898Z,-0.74
2018-02-06T00:59:52.850Z,-0.97
2018-02-06T01:02:18.843Z,-0.57
2018-02-06T01:04:44.782Z,-0.98
2018-02-06T01:07:10.748Z,-0.86
2018-02-06T01:09:36.687Z,-1.11
2018-02-06T01:12:02.647Z,-1.30
2018-02-06T01:14:28.657Z,-0.99
2018-02-06T01:16:54.620Z,-1.27
2018-02-06T01:19:20.555Z,-1.25
2018-02-06T01:21:46.524Z,-1.03
2018-02-06T01:24:12.464Z,-0.90
2018-02-06T01:26:38.465Z,-0.81
2018-02-06T01:29:04.380Z,-0.44
2018-02-06T01:31:30.686Z,-0.62
2018-02-06T01:33:56.656Z,-0.89
2018-02-06T01:36:22.623Z,-1.46
2018-02-06T01:38:48.591Z,-1.36
2018-02-06T01:41:14.523Z,-1.20
2018-02-06T01:43:40.498Z,-1.45
2018-02-06T01:46:06.452Z,-1.50
2018-02-06T01:48:32.385Z,-1.32
2018-02-06T01:50:58.314Z,-1.61
2018-02-06T01:53:24.269Z,-1.56
2018-02-06T01:55:50.201Z,-0.37
2018-02-06T01:58:16.124Z,-0.69
2018-02-06T02:00:42.047Z,-1.28
2018-02-06T02:03:07.998Z,-1.70
2018-02-06T02:05:33.969Z,-1.24
2018-02-06T02:07:59.901Z,-1.05
2018-02-06T02:10:25.843Z,-1.27
2018-02-06T02:12:51.771Z,-1.38
2018-02-06T02:15:17.709Z,-1.47
2018-02-06T02:17:43.655Z,-1.58
2018-02-06T02:20:09.600Z,-1.62
2018-02-06T02:22:35.539Z,-0.87
2018-02-06T02:25:01.481Z,-1.53
2018-02-06T02:27:27.439Z,-1.38
2018-02-06T02:29:53.394Z,-1.06
2018-02-06T02:32:19.351Z,-1.34
2018-02-06T02:34:45.293Z,-1.23
2018-02-06T02:37:11.231Z,-1.30
2018-02-06T02:39:37.169Z,-1.18
2018-02-06T04:38:48.387Z,-2.17
2018-02-06T04:41:14.343Z,-2.35
2018-02-06T04:43:40.331Z,-2.42
2018-02-06T04:46:06.300Z,-2.35
2018-02-06T04:48:32.246Z,-2.56
2018-02-06T04:50:58.208Z,-2.56
2018-02-06T04:53:24.151Z,-2.47
2018-02-06T04:55:50.112Z,-2.13
2018-02-06T04:58:16.055Z,-2.06
2018-02-06T05:00:42.026Z,-1.98
2018-02-06T05:03:07.963Z,-2.01
2018-02-06T05:05:33.901Z,-2.68
2018-02-06T05:07:59.861Z,-2.88
2018-02-06T05:10:25.851Z,-2.58
2018-02-06T05:12:51.799Z,-2.76
2018-02-06T05:15:17.741Z,-2.33
2018-02-06T05:17:43.681Z,-2.13
2018-02-06T05:20:09.645Z,-2.19
2018-02-06T05:22:35.611Z,-2.64
2018-02-06T05:25:01.544Z,-2.93
2018-02-06T05:27:27.502Z,-2.63
2018-02-06T05:29:53.445Z,-2.49
2018-02-06T05:32:19.392Z,-2.15
2018-02-06T05:34:45.359Z,-3.03
2018-02-06T05:37:11.311Z,-3.15
2018-02-06T05:39:37.264Z,-3.05
2018-02-06T05:42:03.195Z,-3.25
2018-02-06T05:44:29.137Z,-2.59
2018-02-06T05:46:55.101Z,-2.47
2018-02-06T05:49:21.089Z,-2.00
2018-02-06T05:51:47.038Z,-2.46
2018-02-06T05:54:12.997Z,-2.93
2018-02-06T05:56:38.973Z,-2.82
2018-02-06T05:59:04.951Z,-2.57
2018-02-06T06:01:30.878Z,-2.92
2018-02-06T06:03:56.832Z,-2.34
2018-02-06T06:06:22.809Z,-2.47
2018-02-06T06:08:48.774Z,-2.65
2018-02-06T06:11:14.715Z,-2.44
2018-02-06T06:13:40.654Z,-2.63
2018-02-06T06:16:06.593Z,-2.60
2018-02-06T06:18:32.551Z,-2.46
2018-02-06T06:20:58.521Z,-2.53
2018-02-06T06:23:24.458Z,-2.39
2018-02-06T06:25:50.399Z,-2.74
2018-02-06T06:28:16.346Z,-2.81
2018-02-06T06:30:42.324Z,-2.85
2018-02-06T06:33:08.260Z,-2.44
2018-02-06T06:35:34.196Z,-2.83
2018-02-06T06:38:00.188Z,-2.93
2018-02-06T06:40:26.182Z,-3.08
2018-02-06T06:42:52.117Z,-3.12
2018-02-06T06:45:18.046Z,-3.14
2018-02-06T06:47:43.994Z,-2.93
2018-02-06T06:50:09.923Z,-2.80
2018-02-06T06:52:35.874Z,-2.69
2018-02-06T06:55:01.831Z,-2.47
2018-02-06T06:57:27.766Z,-2.34
2018-02-06T06:59:53.813Z,-2.29
2018-02-06T07:02:19.774Z,-1.98
2018-02-06T07:04:45.712Z,-2.64
2018-02-06T07:07:11.662Z,-2.78
2018-02-06T07:09:37.610Z,-2.34
2018-02-06T07:12:03.550Z,-2.16
2018-02-06T07:14:29.503Z,-2.48
2018-02-06T07:16:55.443Z,-1.97
2018-02-06T07:19:21.390Z,-1.94
2018-02-06T07:21:47.342Z,-1.76
2018-02-06T07:24:13.302Z,-1.42
2018-02-06T07:26:39.218Z,-1.33
2018-02-06T07:29:05.158Z,-0.84
2018-02-06T07:31:31.096Z,-1.07
2018-02-06T07:33:57.078Z,-0.65
2018-02-06T07:36:23.006Z,-0.07
2018-02-06T07:38:48.948Z,-0.25
2018-02-06T07:41:14.876Z,-0.33
2018-02-06T07:43:40.846Z,-0.37
2018-02-06T07:46:06.792Z,-0.30
2018-02-06T07:48:32.732Z,-0.02
2018-02-06T07:50:58.715Z,0.17
2018-02-06T07:53:24.704Z,0.41
2018-02-06T07:55:50.706Z,0.70
2018-02-06T07:58:16.620Z,0.28
2018-02-06T08:00:42.568Z,0.35
2018-02-06T08:03:08.536Z,0.60
2018-02-06T08:05:34.490Z,0.75
2018-02-06T08:08:00.432Z,0.50
2018-02-06T08:10:26.382Z,-0.17
2018-02-06T08:12:52.328Z,-0.38
2018-02-06T08:15:18.260Z,-0.18
2018-02-06T08:17:44.230Z,-0.14
2018-02-06T08:20:10.154Z,-0.06
2018-02-06T08:22:36.138Z,-0.11
2018-02-06T08:25:02.114Z,0.43
2018-02-06T08:27:28.046Z,0.21
2018-02-06T08:29:53.998Z,-0.10
2018-02-06T08:32:19.930Z,-0.17
2018-02-06T08:34:45.880Z,0.48
2018-02-06T08:37:11.807Z,0.02
2018-02-06T08:39:37.758Z,0.37
2018-02-06T08:42:03.731Z,0.35
2018-02-06T08:44:29.674Z,0.34
2018-02-06T08:46:55.622Z,-0.20
2018-02-06T08:49:21.571Z,0.22
2018-02-06T08:51:47.521Z,0.59
2018-02-06T08:54:13.495Z,0.38
2018-02-06T08:56:39.434Z,0.51
2018-02-06T08:59:05.370Z,0.58
2018-02-06T09:01:31.306Z,0.78
2018-02-06T09:03:57.266Z,1.02
2018-02-06T09:06:23.213Z,1.04
2018-02-06T09:08:49.171Z,0.65
2018-02-06T09:11:15.168Z,1.17
2018-02-06T09:13:41.131Z,1.49
2018-02-06T09:16:07.072Z,0.79
2018-02-06T09:18:33.007Z,1.21
2018-02-06T09:20:58.946Z,1.05
2018-02-06T09:23:24.946Z,1.28
2018-02-06T09:25:50.863Z,1.57
2018-02-06T09:28:16.839Z,1.82
2018-02-06T09:30:42.779Z,1.80
2018-02-06T09:33:08.737Z,1.81
2018-02-06T09:35:34.690Z,1.52
2018-02-06T09:38:00.635Z,1.67
2018-02-06T09:40:26.590Z,1.89
2018-02-06T09:42:52.527Z,1.75
2018-02-06T09:45:18.496Z,1.67
2018-02-06T09:47:44.480Z,1.48
2018-02-06T09:50:10.449Z,1.41
2018-02-06T09:52:36.407Z,1.76
2018-02-06T09:55:02.349Z,1.87
2018-02-06T09:57:28.299Z,0.97
2018-02-06T09:59:54.248Z,1.64
2018-02-06T10:02:20.205Z,1.36
2018-02-06T10:04:46.154Z,1.16
2018-02-06T10:07:12.103Z,1.39
2018-02-06T10:09:38.036Z,1.39
2018-02-06T10:12:03.971Z,1.52
2018-02-06T10:14:29.911Z,1.82
2018-02-06T10:16:55.839Z,1.94
2018-02-06T10:19:21.768Z,1.72
2018-02-06T10:21:47.712Z,1.43
2018-02-06T10:24:13.658Z,1.39
2018-02-06T10:26:39.586Z,1.34
2018-02-06T10:29:05.529Z,1.75
2018-02-06T10:31:31.476Z,1.82
2018-02-06T10:33:57.422Z,1.32
2018-02-06T10:36:23.361Z,1.36
2018-02-06T10:38:49.312Z,1.62
2018-02-06T10:41:15.267Z,1.43
2018-02-06T10:43:41.190Z,1.34
2018-02-06T10:46:07.134Z,1.26
2018-02-06T10:48:33.091Z,1.61
2018-02-06T10:50:59.040Z,1.62
2018-02-06T10:53:24.960Z,1.96
2018-02-06T10:55:50.925Z,1.61
2018-02-06T10:58:16.848Z,1.40
2018-02-06T11:00:42.786Z,1.66
2018-02-06T11:03:08.714Z,1.13
2018-02-06T11:05:34.640Z,1.19
2018-02-06T11:08:00.564Z,1.56
2018-02-06T11:10:26.492Z,1.65
2018-02-06T11:12:52.421Z,1.65
2018-02-06T11:15:18.352Z,1.82
2018-02-06T11:17:44.320Z,1.49
2018-02-06T11:20:10.277Z,1.78
2018-02-06T11:22:36.253Z,1.63
2018-02-06T11:25:02.185Z,1.83
2018-02-06T11:27:28.121Z,1.82
2018-02-06T11:29:54.115Z,1.60
2018-02-06T11:32:20.073Z,1.59
2018-02-06T11:34:46.024Z,1.95
2018-02-06T11:37:12.135Z,1.93
2018-02-06T11:39:38.141Z,1.87
2018-02-06T11:42:04.103Z,2.13
2018-02-06T11:44:30.081Z,2.12
2018-02-06T11:46:56.079Z,1.93
2018-02-06T11:49:22.013Z,1.89
2018-02-06T11:51:47.961Z,1.25
2018-02-06T11:54:13.895Z,1.28
2018-02-06T11:56:39.821Z,1.65
2018-02-06T11:59:05.759Z,1.35
2018-02-06T12:01:31.681Z,1.82
2018-02-06T12:03:57.646Z,1.64
2018-02-06T12:06:23.600Z,2.17
2018-02-06T12:08:49.535Z,1.80
2018-02-06T12:11:15.461Z,1.77
2018-02-06T12:13:41.402Z,1.80
2018-02-06T12:16:07.350Z,1.60
2018-02-06T12:18:33.313Z,1.92
2018-02-06T12:20:59.250Z,1.92
2018-02-06T12:23:25.237Z,1.92
2018-02-06T12:25:51.173Z,1.87
2018-02-06T12:28:17.120Z,2.02
2018-02-06T12:30:43.045Z,2.00
2018-02-06T12:33:08.995Z,2.29
2018-02-06T12:35:34.922Z,2.26
2018-02-06T12:38:00.875Z,2.19
2018-02-06T12:40:26.809Z,2.12
2018-02-06T12:42:52.789Z,2.04
2018-02-06T12:45:18.747Z,2.27
2018-02-06T12:47:44.705Z,2.17
2018-02-06T12:50:10.641Z,2.24
2018-02-06T12:52:36.603Z,2.09
2018-02-06T12:55:02.534Z,2.04
2018-02-06T12:57:28.511Z,2.11
2018-02-06T12:59:54.481Z,2.14
2018-02-06T13:02:20.485Z,1.93
2018-02-06T13:04:46.477Z,2.27
2018-02-06T13:07:12.450Z,2.35
2018-02-06T13:09:38.376Z,2.20
2018-02-06T13:12:04.303Z,2.31
2018-02-06T13:14:30.215Z,2.40
2018-02-06T13:16:56.147Z,2.89
2018-02-06T13:19:22.068Z,2.51
2018-02-06T13:21:48.007Z,2.58
2018-02-06T13:24:13.944Z,2.59
2018-02-06T13:26:39.921Z,2.92
2018-02-06T13:29:05.879Z,3.21
2018-02-06T13:31:31.813Z,2.95
2018-02-06T13:33:57.755Z,2.74
2018-02-06T13:36:23.677Z,2.67
2018-02-06T13:38:49.605Z,2.64
2018-02-06T13:41:15.565Z,2.81
2018-02-06T13:43:41.817Z,2.72
2018-02-06T13:46:07.753Z,3.13
2018-02-06T13:48:33.683Z,2.85
2018-02-06T13:50:59.653Z,3.01
2018-02-06T13:53:25.571Z,2.79
2018-02-06T13:55:51.511Z,3.14
2018-02-06T13:58:17.445Z,2.81
2018-02-06T14:00:43.383Z,2.72
2018-02-06T14:03:09.322Z,2.75
2018-02-06T14:05:35.269Z,2.90
2018-02-06T14:08:01.224Z,3.10
2018-02-06T14:10:27.162Z,2.95
2018-02-06T14:12:53.097Z,2.76
2018-02-06T14:15:19.023Z,2.74
2018-02-06T14:17:44.937Z,2.66
2018-02-06T14:20:10.881Z,2.73
2018-02-06T14:22:36.813Z,2.85
2018-02-06T14:25:02.758Z,2.81
2018-02-06T14:27:28.714Z,2.63
2018-02-06T14:29:54.645Z,2.56
2018-02-06T14:32:20.600Z,2.66
2018-02-06T14:34:46.552Z,2.51
2018-02-06T14:37:12.471Z,2.74
2018-02-06T14:39:38.430Z,2.82
2018-02-06T14:42:04.352Z,2.54
2018-02-06T14:44:30.312Z,2.60
2018-02-06T14:46:56.252Z,2.63
2018-02-06T14:49:22.187Z,2.83
2018-02-06T14:51:48.139Z,2.77
2018-02-06T14:54:14.092Z,2.88
2018-02-06T14:56:40.050Z,3.29
2018-02-06T14:59:05.997Z,3.02
2018-02-06T15:01:31.938Z,3.27
2018-02-06T15:03:57.860Z,3.12
2018-02-06T15:06:23.832Z,2.95
2018-02-06T15:08:49.792Z,2.83
2018-02-06T15:11:15.733Z,2.94
2018-02-06T15:13:41.661Z,2.77
2018-02-06T15:16:07.621Z,3.19
2018-02-06T15:18:33.563Z,2.82
2018-02-06T15:20:59.507Z,3.03
2018-02-06T15:23:25.438Z,3.05
2018-02-06T15:25:51.392Z,3.24
2018-02-06T15:28:17.332Z,3.35
2018-02-06T15:30:43.272Z,3.17
2018-02-06T15:33:09.214Z,3.33
2018-02-06T15:35:35.170Z,3.13
2018-02-06T15:38:01.100Z,3.22
2018-02-06T15:40:27.042Z,3.04
2018-02-06T15:42:53.004Z,3.20
2018-02-06T15:45:18.942Z,3.27
2018-02-06T15:47:44.904Z,3.13
2018-02-06T15:50:10.866Z,3.20
2018-02-06T15:52:36.816Z,3.06
2018-02-06T15:55:02.754Z,3.12
2018-02-06T15:57:28.672Z,2.98
2018-02-06T15:59:54.652Z,3.34
2018-02-06T16:02:20.586Z,3.43
2018-02-06T16:04:46.528Z,3.17
2018-02-06T16:07:12.483Z,3.10
2018-02-06T16:09:38.434Z,3.14
2018-02-06T16:12:04.398Z,3.02
2018-02-06T16:14:30.344Z,3.12
2018-02-06T16:16:56.298Z,3.26
2018-02-06T16:19:22.242Z,3.34
2018-02-06T16:21:48.178Z,3.21
2018-02-06T16:24:14.106Z,2.97
2018-02-06T16:26:40.047Z,3.19
2018-02-06T16:29:05.992Z,3.19
2018-02-06T16:31:31.907Z,2.82
2018-02-06T16:33:57.846Z,3.02
2018-02-06T16:36:23.818Z,3.20
2018-02-06T16:38:49.766Z,3.06
2018-02-06T16:41:15.753Z,3.23
2018-02-06T16:43:41.708Z,3.01
2018-02-06T16:46:07.640Z,2.81
2018-02-06T16:48:33.594Z,2.93
2018-02-06T16:50:59.550Z,3.05
2018-02-06T16:53:25.520Z,3.10
2018-02-06T16:55:51.453Z,2.96
2018-02-06T16:58:17.396Z,2.90
2018-02-06T17:00:43.345Z,2.98
2018-02-06T17:03:09.283Z,3.28
2018-02-06T17:05:35.254Z,2.65
2018-02-06T17:08:01.232Z,3.08
2018-02-06T17:10:27.169Z,2.93
2018-02-06T17:12:53.122Z,2.95
2018-02-06T17:15:19.152Z,2.68
2018-02-06T17:17:45.147Z,2.39
2018-02-06T17:20:11.090Z,2.37
2018-02-06T17:22:37.081Z,2.72
2018-02-06T17:25:03.087Z,2.46
2018-02-06T17:27:29.028Z,2.22
2018-02-06T17:32:25.194Z,2.03
2018-02-06T17:34:51.174Z,2.36
2018-02-06T17:37:17.105Z,2.22
2018-02-06T17:39:43.060Z,2.23
2018-02-06T17:42:08.997Z,2.21
2018-02-06T17:44:34.933Z,1.96
2018-02-06T17:47:00.857Z,1.84
2018-02-06T17:49:26.813Z,1.94
2018-02-06T17:51:52.768Z,2.55
2018-02-06T17:54:18.750Z,2.22
2018-02-06T17:56:44.703Z,1.97
2018-02-06T17:59:11.720Z,1.80
2018-02-06T18:01:37.717Z,2.27
2018-02-06T18:04:03.696Z,2.26
2018-02-06T18:06:29.718Z,2.50
2018-02-06T18:08:55.675Z,2.91
2018-02-06T18:11:21.664Z,2.94
2018-02-06T18:13:47.621Z,2.70
2018-02-06T18:16:13.551Z,2.60
2018-02-06T18:18:39.524Z,2.46
2018-02-06T18:21:05.493Z,2.75
2018-02-06T18:23:31.484Z,2.70
2018-02-06T18:25:57.471Z,2.77
2018-02-06T18:28:23.440Z,2.73
2018-02-06T18:30:49.432Z,2.67
2018-02-06T18:33:15.390Z,2.03
2018-02-06T18:35:41.336Z,2.03
2018-02-06T18:38:07.273Z,2.50
2018-02-06T18:40:33.216Z,2.31
2018-02-06T18:42:59.309Z,2.56
2018-02-06T18:45:25.232Z,2.58
2018-02-06T18:47:51.200Z,2.74
2018-02-06T18:50:17.127Z,2.78
2018-02-06T18:52:43.122Z,2.39
2018-02-06T18:55:09.070Z,2.67
2018-02-06T18:57:35.018Z,2.33
2018-02-06T19:00:02.152Z,2.20
2018-02-06T19:02:28.192Z,2.16
2018-02-06T19:04:54.825Z,2.00
2018-02-06T19:07:20.751Z,1.81
2018-02-06T19:09:46.772Z,1.92
2018-02-06T19:12:12.703Z,2.15
2018-02-06T19:14:38.684Z,1.67
2018-02-06T19:17:04.686Z,1.98
2018-02-06T19:19:30.627Z,1.95
2018-02-06T19:21:56.612Z,1.86
2018-02-06T19:24:22.542Z,2.24
2018-02-06T19:26:48.581Z,2.49
2018-02-06T19:29:14.580Z,2.36
2018-02-06T19:31:40.540Z,2.12
2018-02-06T19:34:06.515Z,1.86
2018-02-06T19:36:32.456Z,2.14
2018-02-06T19:38:58.514Z,1.78
2018-02-06T19:41:24.559Z,2.00
2018-02-06T19:43:50.502Z,2.21
2018-02-06T19:46:16.466Z,2.17
2018-02-06T19:48:42.512Z,2.41
2018-02-06T19:51:08.463Z,1.92
2018-02-06T19:53:34.447Z,1.81
2018-02-06T19:56:00.401Z,1.80
2018-02-06T19:58:26.396Z,1.73
2018-02-06T20:00:52.500Z,1.70
2018-02-06T20:03:18.547Z,1.83
2018-02-06T20:05:44.496Z,2.23
2018-02-06T20:08:10.463Z,1.56
2018-02-06T20:10:36.399Z,2.09
2018-02-06T20:13:02.409Z,2.35
2018-02-06T20:15:28.349Z,2.06
2018-02-06T20:17:54.332Z,2.27
2018-02-06T20:20:20.293Z,1.74
2018-02-06T20:22:46.287Z,1.93
2018-02-06T20:25:12.267Z,2.42
2018-02-06T20:27:38.239Z,2.18
2018-02-06T20:30:04.259Z,1.76
2018-02-06T20:32:30.320Z,1.88
2018-02-06T20:34:56.317Z,1.93
2018-02-06T20:37:22.263Z,1.36
2018-02-06T20:39:48.245Z,1.44
2018-02-06T20:42:14.179Z,1.40
2018-02-06T20:44:40.117Z,1.62
2018-02-06T20:47:06.067Z,1.42
2018-02-06T20:49:32.019Z,1.33
2018-02-06T20:51:57.971Z,1.60
2018-02-06T20:54:23.953Z,1.64
2018-02-06T20:56:49.949Z,1.81
2018-02-06T20:59:15.901Z,1.43
2018-02-06T21:01:41.887Z,1.50
2018-02-06T21:04:07.829Z,1.55
2018-02-06T21:06:33.831Z,1.40
2018-02-06T21:08:59.792Z,1.59
2018-02-06T21:11:25.790Z,1.25
2018-02-06T21:13:51.792Z,1.14
2018-02-06T21:16:17.757Z,1.06
2018-02-06T21:18:43.727Z,1.59
2018-02-06T21:21:09.703Z,1.88
2018-02-06T21:23:35.663Z,2.60
2018-02-06T21:26:01.676Z,2.20
2018-02-06T21:28:27.620Z,1.76
2018-02-06T21:30:53.566Z,1.75
2018-02-06T21:33:19.511Z,0.99
2018-02-06T21:35:45.441Z,1.11
2018-02-06T21:38:11.441Z,1.18
2018-02-06T21:40:37.371Z,1.17
2018-02-06T21:43:03.317Z,1.25
2018-02-06T21:45:29.281Z,1.30
2018-02-06T21:47:55.221Z,0.85
2018-02-06T21:50:21.162Z,0.74
2018-02-06T21:52:47.111Z,1.18
2018-02-06T21:55:13.051Z,1.03
2018-02-06T21:57:39.007Z,1.09
2018-02-06T22:00:04.927Z,0.84
2018-02-06T22:02:30.849Z,0.92
2018-02-06T22:04:56.784Z,0.91
2018-02-06T22:07:22.751Z,0.88
2018-02-06T22:09:48.688Z,0.85
2018-02-06T22:12:14.635Z,0.80
2018-02-06T22:14:40.564Z,0.61
2018-02-06T22:17:06.507Z,0.84
2018-02-06T22:19:32.473Z,0.62
2018-02-06T22:21:58.427Z,0.55
2018-02-06T22:24:24.387Z,0.47
2018-02-06T22:26:50.349Z,0.75
2018-02-06T22:29:16.293Z,0.93
2018-02-06T22:31:42.233Z,0.54
2018-02-06T22:34:08.201Z,0.09
2018-02-06T22:36:34.123Z,0.45
2018-02-06T22:39:00.089Z,0.57
2018-02-06T22:41:26.042Z,0.71
2018-02-06T22:43:52.027Z,0.55
2018-02-06T22:46:17.969Z,0.63
2018-02-06T22:48:43.947Z,0.31
2018-02-06T22:51:10.027Z,0.55
2018-02-06T22:53:36.051Z,0.58
2018-02-06T22:56:01.997Z,0.62
2018-02-06T22:58:27.993Z,0.23
2018-02-06T23:00:53.921Z,0.15
2018-02-06T23:03:19.871Z,0.17
2018-02-06T23:05:45.829Z,-0.07
2018-02-06T23:08:11.841Z,-0.05
2018-02-06T23:10:37.777Z,0.29
2018-02-06T23:13:03.750Z,0.49
2018-02-06T23:15:29.669Z,-0.18
2018-02-06T23:17:55.643Z,0.07
2018-02-06T23:20:21.593Z,0.06
2018-02-06T23:22:47.533Z,0.06
2018-02-06T23:25:13.513Z,0.36
2018-02-06T23:27:39.462Z,0.34
2018-02-06T23:30:05.402Z,0.24
2018-02-06T23:32:31.351Z,0.13
2018-02-06T23:34:57.291Z,0.18
2018-02-06T23:37:23.322Z,-0.16
2018-02-06T23:39:49.245Z,0.09
2018-02-06T23:42:15.281Z,0.01
2018-02-06T23:44:41.197Z,0.18
2018-02-06T23:47:07.146Z,-0.11
2018-02-06T23:49:33.091Z,-0.10
2018-02-06T23:51:59.012Z,0.25
2018-02-06T23:54:24.925Z,0.01
2018-02-06T23:56:50.899Z,0.13
2018-02-06T23:59:16.869Z,0.39
